Time,TemperatureF,DewpointF,PressureIn,WindDirection,WindDirectionDegrees,WindSpeedMPH,WindSpeedGustMPH,Humidity,HourlyPrecipIn,Conditions,Clouds,dailyrainin,SoftwareType,DateUTC
2013-04-02 00:14:00,27.5,-5.4,30.09,WNW,292,5.0,-999.0,23,-99.99,,,-99.99,meteohub,2013-04-02 04:14:00,
2013-04-02 00:15:00,27.5,-5.4,30.09,WNW,292,4.0,-999.0,23,-99.99,,,-99.99,meteohub,2013-04-02 04:15:00,
2013-04-02 00:17:00,27.3,-5.6,30.09,WNW,292,5.0,-999.0,23,-99.99,,,-99.99,meteohub,2013-04-02 04:17:00,
2013-04-02 00:23:00,27.5,-2.9,30.09,WNW,292,6.0,6.0,26,0.00,,,0.00,meteohub,2013-04-02 04:23:00,
2013-04-02 00:28:00,27.3,-2.9,30.09,WNW,292,4.0,-999.0,26,-99.99,,,0.00,meteohub,2013-04-02 04:28:00,
2013-04-02 00:33:00,27.1,-3.1,30.09,NW,315,6.0,6.0,26,0.00,,,0.00,meteohub,2013-04-02 04:33:00,
2013-04-02 00:38:00,27.1,-3.1,30.09,WNW,292,5.0,6.0,26,0.00,,,0.00,meteohub,2013-04-02 04:38:00,
2013-04-02 00:43:00,27.0,-3.3,30.12,WNW,292,4.0,6.0,26,0.00,,,0.00,meteohub,2013-04-02 04:43:00,
2013-04-02 00:49:00,27.0,-3.3,30.12,WNW,292,3.0,6.0,26,0.00,,,0.00,meteohub,2013-04-02 04:49:00,
2013-04-02 00:54:00,26.8,-1.8,30.09,WNW,292,4.0,6.0,28,0.00,,,0.00,meteohub,2013-04-02 04:54:00,
2013-04-02 00:59:00,26.6,-3.6,30.09,West,270,4.0,-999.0,26,-99.99,,,0.00,meteohub,2013-04-02 04:59:00,
2013-04-02 01:05:00,26.4,-1.5,30.09,WNW,292,4.0,5.0,29,0.00,,,0.00,meteohub,2013-04-02 05:05:00,
2013-04-02 01:10:00,26.2,-1.7,30.09,WNW,292,4.0,6.0,29,0.00,,,0.00,meteohub,2013-04-02 05:10:00,
2013-04-02 01:15:00,26.2,-1.7,30.09,WNW,292,4.0,6.0,29,0.00,,,0.00,meteohub,2013-04-02 05:15:00,
2013-04-02 01:20:00,26.1,-0.4,30.09,WNW,292,3.0,6.0,31,0.00,,,0.00,meteohub,2013-04-02 05:20:00,
2013-04-02 01:25:00,26.1,-0.4,30.09,WNW,292,4.0,-999.0,31,-99.99,,,0.00,meteohub,2013-04-02 05:25:00,
2013-04-02 01:31:00,25.9,-0.6,30.09,West,270,4.0,-999.0,31,0.00,,,0.00,meteohub,2013-04-02 05:31:00,
2013-04-02 01:36:00,25.7,-0.8,30.09,WSW,248,3.0,-999.0,31,0.00,,,0.00,meteohub,2013-04-02 05:36:00,
2013-04-02 01:41:00,25.5,-2.2,30.09,West,270,4.0,-999.0,29,0.00,,,0.00,meteohub,2013-04-02 05:41:00,
2013-04-02 01:47:00,25.5,-0.9,30.09,WNW,292,4.0,-999.0,31,0.00,,,0.00,meteohub,2013-04-02 05:47:00,
2013-04-02 01:52:00,25.5,-0.9,30.09,West,270,5.0,-999.0,31,0.00,,,0.00,meteohub,2013-04-02 05:52:00,
2013-04-02 01:57:00,25.5,-2.2,30.09,WNW,292,5.0,-999.0,29,-99.99,,,0.00,meteohub,2013-04-02 05:57:00,
2013-04-02 02:02:00,25.7,0.0,30.09,WNW,292,5.0,-999.0,32,-99.99,,,0.00,meteohub,2013-04-02 06:02:00,
2013-04-02 02:07:00,25.5,-0.9,30.09,WNW,292,6.0,-999.0,31,-99.99,,,0.00,meteohub,2013-04-02 06:07:00,
2013-04-02 02:12:00,25.5,-0.2,30.09,WNW,292,4.0,-999.0,32,-99.99,,,0.00,meteohub,2013-04-02 06:12:00,
2013-04-02 02:17:00,25.3,-1.1,30.09,NW,315,5.0,-999.0,31,-99.99,,,0.00,meteohub,2013-04-02 06:17:00,
2013-04-02 02:22:00,25.3,-0.4,30.09,WSW,248,5.0,-999.0,32,-99.99,,,0.00,meteohub,2013-04-02 06:22:00,
2013-04-02 02:28:00,25.3,-0.4,30.06,WNW,292,6.0,6.0,32,-99.99,,,0.00,meteohub,2013-04-02 06:28:00,
2013-04-02 02:33:00,25.3,-1.1,30.06,WSW,248,5.0,-999.0,31,-99.99,,,0.00,meteohub,2013-04-02 06:33:00,
2013-04-02 02:38:00,25.3,-0.4,30.06,WNW,292,5.0,-999.0,32,-99.99,,,0.00,meteohub,2013-04-02 06:38:00,
2013-04-02 02:43:00,25.3,-1.1,30.09,WNW,292,5.0,-999.0,31,-99.99,,,0.00,meteohub,2013-04-02 06:43:00,
2013-04-02 02:49:00,25.3,-0.4,30.09,WNW,292,6.0,-999.0,32,-99.99,,,0.00,meteohub,2013-04-02 06:49:00,
2013-04-02 02:54:00,25.5,-0.2,30.06,WNW,292,9.0,-999.0,32,-99.99,,,0.00,meteohub,2013-04-02 06:54:00,
2013-04-02 02:59:00,25.9,2.7,30.06,WNW,292,9.0,-999.0,36,-99.99,,,0.00,meteohub,2013-04-02 06:59:00,
2013-04-02 03:04:00,25.9,5.9,30.06,WNW,292,10.0,-999.0,42,-99.99,,,0.00,meteohub,2013-04-02 07:04:00,
2013-04-02 03:10:00,25.7,5.9,30.09,West,270,6.0,-999.0,42,-99.99,,,0.00,meteohub,2013-04-02 07:10:00,
2013-04-02 03:15:00,25.7,5.9,30.09,WNW,292,5.0,-999.0,42,-99.99,,,0.00,meteohub,2013-04-02 07:15:00,
2013-04-02 03:20:00,25.3,2.1,30.09,WNW,292,6.0,-999.0,36,-99.99,,,0.00,meteohub,2013-04-02 07:20:00,
2013-04-02 03:26:00,25.5,2.3,30.09,WNW,292,6.0,-999.0,36,-99.99,,,0.00,meteohub,2013-04-02 07:26:00,
2013-04-02 03:31:00,25.7,1.9,30.09,WNW,292,6.0,-999.0,35,-99.99,,,0.00,meteohub,2013-04-02 07:31:00,
2013-04-02 03:36:00,25.9,2.7,30.09,WNW,292,8.0,-999.0,36,-99.99,,,0.00,meteohub,2013-04-02 07:36:00,
2013-04-02 03:42:00,25.7,1.2,30.09,NW,315,6.0,-999.0,34,-99.99,,,0.00,meteohub,2013-04-02 07:42:00,
2013-04-02 03:47:00,25.7,1.2,30.09,WNW,292,7.0,-999.0,34,-99.99,,,0.00,meteohub,2013-04-02 07:47:00,
2013-04-02 03:52:00,26.1,2.1,30.09,WNW,292,7.0,-999.0,35,-99.99,,,0.00,meteohub,2013-04-02 07:52:00,
2013-04-02 03:57:00,25.9,1.4,30.06,WNW,292,6.0,-999.0,34,-99.99,,,0.00,meteohub,2013-04-02 07:57:00,
2013-04-02 04:02:00,26.1,1.6,30.06,WNW,292,8.0,-999.0,34,-99.99,,,0.00,meteohub,2013-04-02 08:02:00,
2013-04-02 04:07:00,26.2,2.3,30.06,WNW,292,6.0,-999.0,35,-99.99,,,0.00,meteohub,2013-04-02 08:07:00,
2013-04-02 04:12:00,26.2,2.3,30.06,NNW,338,6.0,-999.0,35,-99.99,,,0.00,meteohub,2013-04-02 08:12:00,
2013-04-02 04:17:00,26.2,1.8,30.06,NNW,338,8.0,-999.0,34,-99.99,,,0.00,meteohub,2013-04-02 08:17:00,
2013-04-02 04:22:00,26.2,2.3,30.06,NW,315,6.0,-999.0,35,-99.99,,,0.00,meteohub,2013-04-02 08:22:00,
2013-04-02 04:27:00,26.4,4.3,30.09,NW,315,8.0,-999.0,38,-99.99,,,0.00,meteohub,2013-04-02 08:27:00,
2013-04-02 04:32:00,26.4,5.4,30.09,NNW,338,9.0,-999.0,40,-99.99,,,0.00,meteohub,2013-04-02 08:32:00,
2013-04-02 04:38:00,26.4,6.4,30.09,NW,315,7.0,-999.0,42,-99.99,,,0.00,meteohub,2013-04-02 08:38:00,
2013-04-02 04:43:00,26.4,6.4,30.06,NW,315,8.0,-999.0,42,-99.99,,,0.00,meteohub,2013-04-02 08:43:00,
2013-04-02 04:48:00,26.4,7.0,30.06,NW,315,8.0,-999.0,43,-99.99,,,0.00,meteohub,2013-04-02 08:48:00,
2013-04-02 04:53:00,26.4,7.5,30.06,NW,315,6.0,-999.0,44,-99.99,,,0.00,meteohub,2013-04-02 08:53:00,
2013-04-02 04:58:00,26.4,8.1,30.06,NW,315,6.0,-999.0,45,-99.99,,,0.00,meteohub,2013-04-02 08:58:00,
2013-04-02 05:03:00,26.4,8.1,30.06,NNW,338,6.0,-999.0,45,-99.99,,,0.00,meteohub,2013-04-02 09:03:00,
2013-04-02 05:09:00,26.2,7.9,30.09,NW,315,9.0,-999.0,45,-99.99,,,0.00,meteohub,2013-04-02 09:09:00,
2013-04-02 05:14:00,26.2,8.2,30.09,NNW,338,8.0,-999.0,46,-99.99,,,0.00,meteohub,2013-04-02 09:14:00,
2013-04-02 05:19:00,26.2,8.8,30.09,NNW,338,6.0,-999.0,47,-99.99,,,0.00,meteohub,2013-04-02 09:19:00,
2013-04-02 05:24:00,26.2,8.2,30.06,NNW,338,7.0,-999.0,46,-99.99,,,0.00,meteohub,2013-04-02 09:24:00,
2013-04-02 05:29:00,26.1,7.7,30.06,WNW,292,8.0,-999.0,45,-99.99,,,0.00,meteohub,2013-04-02 09:29:00,
2013-04-02 05:34:00,25.9,7.5,30.06,WNW,292,6.0,-999.0,45,-99.99,,,0.00,meteohub,2013-04-02 09:34:00,
2013-04-02 05:39:00,25.9,8.1,30.09,NW,315,6.0,-999.0,46,-99.99,,,0.00,meteohub,2013-04-02 09:39:00,
2013-04-02 05:44:00,25.9,8.1,30.09,WNW,292,8.0,-999.0,46,-99.99,,,0.00,meteohub,2013-04-02 09:44:00,
2013-04-02 05:50:00,25.9,8.4,30.09,NW,315,8.0,-999.0,47,-99.99,,,0.00,meteohub,2013-04-02 09:50:00,
2013-04-02 05:55:00,25.5,7.7,30.09,NNW,338,7.0,-999.0,46,-99.99,,,0.00,meteohub,2013-04-02 09:55:00,
2013-04-02 06:00:00,25.7,8.2,30.09,NNW,338,7.0,-999.0,47,-99.99,,,0.00,meteohub,2013-04-02 10:00:00,
2013-04-02 06:05:00,25.5,7.7,30.09,NW,315,6.0,-999.0,46,-99.99,,,0.00,meteohub,2013-04-02 10:05:00,
2013-04-02 06:11:00,25.7,8.8,30.09,NNW,338,6.0,-999.0,48,-99.99,,,0.00,meteohub,2013-04-02 10:11:00,
2013-04-02 06:16:00,25.7,9.1,30.09,NNW,338,6.0,-999.0,49,-99.99,,,0.00,meteohub,2013-04-02 10:16:00,
2013-04-02 06:21:00,25.5,8.6,30.09,NW,315,5.0,-999.0,48,-99.99,,,0.00,meteohub,2013-04-02 10:21:00,
2013-04-02 06:27:00,25.5,8.1,30.12,NW,315,8.0,-999.0,47,-99.99,,,0.00,meteohub,2013-04-02 10:27:00,
2013-04-02 06:32:00,25.3,7.5,30.12,NNW,338,6.0,-999.0,46,-99.99,,,0.00,meteohub,2013-04-02 10:32:00,
2013-04-02 06:37:00,25.3,7.5,30.12,WNW,292,6.0,-999.0,46,-99.99,,,0.00,meteohub,2013-04-02 10:37:00,
2013-04-02 06:43:00,25.3,7.5,30.12,NNW,338,6.0,-999.0,46,-99.99,,,-99.99,meteohub,2013-04-02 10:43:00,
2013-04-02 06:48:00,25.3,7.9,30.12,NNW,338,6.0,-999.0,47,-99.99,,,-99.99,meteohub,2013-04-02 10:48:00,
2013-04-02 06:53:00,25.3,7.9,30.12,WNW,292,6.0,-999.0,47,-99.99,,,-99.99,meteohub,2013-04-02 10:53:00,
2013-04-02 06:58:00,25.3,7.9,30.12,NNW,338,8.0,-999.0,47,-99.99,,,-99.99,meteohub,2013-04-02 10:58:00,
2013-04-02 07:03:00,25.3,9.3,30.12,NNW,338,6.0,-999.0,50,-99.99,,,-99.99,meteohub,2013-04-02 11:03:00,
2013-04-02 07:08:00,25.0,8.6,30.15,NW,315,6.0,-999.0,49,-99.99,,,-99.99,meteohub,2013-04-02 11:08:00,
2013-04-02 07:14:00,25.2,9.7,30.15,NNW,338,6.0,-999.0,51,-99.99,,,-99.99,meteohub,2013-04-02 11:14:00,
2013-04-02 07:19:00,24.8,8.8,30.15,NNW,338,6.0,-999.0,50,-99.99,,,-99.99,meteohub,2013-04-02 11:19:00,
2013-04-02 07:24:00,24.8,9.3,30.15,WNW,292,4.0,-999.0,51,-99.99,,,-99.99,meteohub,2013-04-02 11:24:00,
2013-04-02 07:30:00,24.6,9.1,30.15,WNW,292,4.0,-999.0,51,-99.99,,,-99.99,meteohub,2013-04-02 11:30:00,
2013-04-02 07:35:00,24.6,9.1,30.15,NW,315,6.0,-999.0,51,-99.99,,,-99.99,meteohub,2013-04-02 11:35:00,
2013-04-02 07:40:00,24.8,9.7,30.15,WNW,292,4.0,-999.0,52,-99.99,,,-99.99,meteohub,2013-04-02 11:40:00,
2013-04-02 07:45:00,24.8,9.7,30.15,WNW,292,6.0,-999.0,52,-99.99,,,-99.99,meteohub,2013-04-02 11:45:00,
2013-04-02 07:51:00,24.8,9.3,30.15,NW,315,5.0,-999.0,51,-99.99,,,-99.99,meteohub,2013-04-02 11:51:00,
2013-04-02 07:56:00,24.8,8.4,30.12,WNW,292,4.0,-999.0,49,-99.99,,,-99.99,meteohub,2013-04-02 11:56:00,
2013-04-02 08:02:00,24.6,7.3,30.12,WNW,292,4.0,-999.0,47,-99.99,,,-99.99,meteohub,2013-04-02 12:02:00,
2013-04-02 08:07:00,24.8,7.9,30.12,WNW,292,6.0,-999.0,48,-99.99,,,-99.99,meteohub,2013-04-02 12:07:00,
2013-04-02 08:12:00,24.8,7.0,30.15,WSW,248,4.0,-999.0,46,-99.99,,,-99.99,meteohub,2013-04-02 12:12:00,
2013-04-02 08:17:00,25.2,7.9,30.15,WNW,292,6.0,-999.0,47,-99.99,,,-99.99,meteohub,2013-04-02 12:17:00,
2013-04-02 08:22:00,25.3,7.0,30.15,WNW,292,4.0,-999.0,45,-99.99,,,-99.99,meteohub,2013-04-02 12:22:00,
2013-04-02 08:27:00,25.3,6.1,30.15,NW,315,4.0,-999.0,43,-99.99,,,-99.99,meteohub,2013-04-02 12:27:00,
2013-04-02 08:32:00,25.7,7.3,30.15,WNW,292,6.0,-999.0,45,-99.99,,,-99.99,meteohub,2013-04-02 12:32:00,
2013-04-02 08:37:00,25.9,5.9,30.15,NW,315,6.0,-999.0,42,-99.99,,,-99.99,meteohub,2013-04-02 12:37:00,
2013-04-02 08:42:00,26.1,3.9,30.15,WNW,292,9.0,-999.0,38,-99.99,,,-99.99,meteohub,2013-04-02 12:42:00,
2013-04-02 08:48:00,26.4,4.3,30.15,WNW,292,11.0,-999.0,38,-99.99,,,-99.99,meteohub,2013-04-02 12:48:00,
2013-04-02 08:53:00,26.6,2.1,30.15,WNW,292,9.0,-999.0,34,-99.99,,,-99.99,meteohub,2013-04-02 12:53:00,
2013-04-02 08:58:00,27.0,1.8,30.15,WNW,292,10.0,-999.0,33,-99.99,,,-99.99,meteohub,2013-04-02 12:58:00,
2013-04-02 09:03:00,27.1,1.2,30.15,West,270,8.0,-999.0,32,-99.99,,,-99.99,meteohub,2013-04-02 13:03:00,
2013-04-02 09:09:00,27.3,0.7,30.15,WNW,292,11.0,-999.0,31,-99.99,,,-99.99,meteohub,2013-04-02 13:09:00,
2013-04-02 09:14:00,27.9,-0.9,30.15,NNW,338,9.0,-999.0,28,-99.99,,,-99.99,meteohub,2013-04-02 13:14:00,
2013-04-02 09:19:00,28.2,-2.2,30.15,WNW,292,11.0,-999.0,26,-99.99,,,-99.99,meteohub,2013-04-02 13:19:00,
2013-04-02 09:25:00,28.8,-2.6,30.15,NW,315,9.0,-999.0,25,-99.99,,,-99.99,meteohub,2013-04-02 13:25:00,
2013-04-02 09:30:00,28.8,-4.4,30.15,NW,315,8.0,-999.0,23,-99.99,,,-99.99,meteohub,2013-04-02 13:30:00,
2013-04-02 09:35:00,29.5,-2.0,30.15,WNW,292,10.0,-999.0,25,-99.99,,,-99.99,meteohub,2013-04-02 13:35:00,
2013-04-02 09:40:00,29.7,-3.6,30.15,NNW,338,10.0,-999.0,23,-99.99,,,-99.99,meteohub,2013-04-02 13:40:00,
2013-04-02 09:46:00,29.8,-3.5,30.15,WNW,292,7.0,-999.0,23,-99.99,,,-99.99,meteohub,2013-04-02 13:46:00,
2013-04-02 09:51:00,30.2,-3.1,30.15,NNW,338,8.0,-999.0,23,-99.99,,,-99.99,meteohub,2013-04-02 13:51:00,
2013-04-02 09:57:00,30.4,-2.9,30.15,NW,315,11.0,-999.0,23,-99.99,,,-99.99,meteohub,2013-04-02 13:57:00,
2013-04-02 10:02:00,30.7,-2.6,30.15,WNW,292,11.0,-999.0,23,-99.99,,,-99.99,meteohub,2013-04-02 14:02:00,
2013-04-02 10:07:00,31.1,-2.4,30.15,NNW,338,7.0,-999.0,23,-99.99,,,-99.99,meteohub,2013-04-02 14:07:00,
2013-04-02 10:12:00,31.3,-2.2,30.15,WNW,292,15.0,-999.0,23,-99.99,,,-99.99,meteohub,2013-04-02 14:12:00,
2013-04-02 10:17:00,31.3,-2.2,30.15,NW,315,13.0,-999.0,23,-99.99,,,-99.99,meteohub,2013-04-02 14:17:00,
2013-04-02 10:22:00,31.6,-1.8,30.15,NW,315,9.0,-999.0,23,-99.99,,,-99.99,meteohub,2013-04-02 14:22:00,
2013-04-02 10:27:00,32.0,-1.5,30.15,NNW,338,13.0,-999.0,23,-99.99,,,-99.99,meteohub,2013-04-02 14:27:00,
2013-04-02 10:32:00,32.5,-1.1,30.15,NNW,338,11.0,-999.0,23,-99.99,,,-99.99,meteohub,2013-04-02 14:32:00,
2013-04-02 10:37:00,32.2,-1.3,30.15,WNW,292,11.0,-999.0,23,-99.99,,,-99.99,meteohub,2013-04-02 14:37:00,
2013-04-02 10:43:00,32.7,-0.9,30.15,North,0,12.0,-999.0,23,-99.99,,,-99.99,meteohub,2013-04-02 14:43:00,
2013-04-02 10:48:00,32.7,-0.9,30.15,NNW,338,17.0,-999.0,23,-99.99,,,-99.99,meteohub,2013-04-02 14:48:00,
2013-04-02 10:53:00,32.5,-1.1,30.15,NW,315,10.0,-999.0,23,-99.99,,,-99.99,meteohub,2013-04-02 14:53:00,
2013-04-02 10:58:00,32.5,-1.1,30.15,NE,45,10.0,-999.0,23,-99.99,,,-99.99,meteohub,2013-04-02 14:58:00,
2013-04-02 11:03:00,32.5,-1.1,30.15,NNW,338,15.0,-999.0,23,-99.99,,,-99.99,meteohub,2013-04-02 15:03:00,
2013-04-02 11:08:00,32.9,-0.8,30.15,WNW,292,10.0,-999.0,23,-99.99,,,-99.99,meteohub,2013-04-02 15:08:00,
2013-04-02 11:14:00,32.9,-0.8,30.15,NNW,338,15.0,-999.0,23,-99.99,,,-99.99,meteohub,2013-04-02 15:14:00,
2013-04-02 11:19:00,33.1,-0.6,30.15,NNW,338,16.0,-999.0,23,-99.99,,,-99.99,meteohub,2013-04-02 15:19:00,
2013-04-02 11:24:00,33.1,-0.6,30.15,NNW,338,13.0,-999.0,23,-99.99,,,-99.99,meteohub,2013-04-02 15:24:00,
2013-04-02 11:29:00,33.1,-0.6,30.15,NW,315,16.0,-999.0,23,-99.99,,,-99.99,meteohub,2013-04-02 15:29:00,
2013-04-02 11:34:00,33.3,-0.4,30.15,NNW,338,15.0,-999.0,23,-99.99,,,-99.99,meteohub,2013-04-02 15:34:00,
2013-04-02 11:40:00,33.6,0.0,30.15,NNW,338,12.0,-999.0,23,-99.99,,,-99.99,meteohub,2013-04-02 15:40:00,
2013-04-02 11:45:00,33.6,0.0,30.15,NW,315,13.0,-999.0,23,-99.99,,,-99.99,meteohub,2013-04-02 15:45:00,
2013-04-02 11:50:00,33.6,0.0,30.15,NW,315,10.0,-999.0,23,-99.99,,,-99.99,meteohub,2013-04-02 15:50:00,
2013-04-02 11:55:00,33.6,0.0,30.15,NNW,338,11.0,-999.0,23,-99.99,,,-99.99,meteohub,2013-04-02 15:55:00,
2013-04-02 12:01:00,33.6,-3.1,30.15,WNW,292,7.0,-999.0,20,-99.99,,,-99.99,meteohub,2013-04-02 16:01:00,
2013-04-02 12:06:00,33.8,-2.9,30.15,WNW,292,15.0,-999.0,20,-99.99,,,-99.99,meteohub,2013-04-02 16:06:00,
2013-04-02 12:14:00,34.0,-0.8,30.15,NW,315,19.0,-999.0,22,-99.99,,,-99.99,meteohub,2013-04-02 16:14:00,
2013-04-02 12:19:00,34.2,-0.6,30.15,WNW,292,11.0,-999.0,22,-99.99,,,-99.99,meteohub,2013-04-02 16:19:00,
2013-04-02 12:25:00,34.3,-2.4,30.15,NNW,338,13.0,-999.0,20,-99.99,,,-99.99,meteohub,2013-04-02 16:25:00,
2013-04-02 12:31:00,34.3,-0.4,30.15,NNW,338,11.0,-999.0,22,-99.99,,,-99.99,meteohub,2013-04-02 16:31:00,
2013-04-02 12:37:00,34.3,-2.4,30.15,NNW,338,13.0,-999.0,20,-99.99,,,-99.99,meteohub,2013-04-02 16:37:00,
2013-04-02 12:42:00,34.9,0.0,30.15,West,270,12.0,-999.0,22,-99.99,,,-99.99,meteohub,2013-04-02 16:42:00,
2013-04-02 12:47:00,34.7,-0.2,30.15,WNW,292,15.0,-999.0,22,-99.99,,,-99.99,meteohub,2013-04-02 16:47:00,
2013-04-02 12:54:00,34.9,-2.0,30.15,NW,315,17.0,-999.0,20,-99.99,,,-99.99,meteohub,2013-04-02 16:54:00,
2013-04-02 12:59:00,35.1,-1.8,30.15,WNW,292,10.0,-999.0,20,-99.99,,,-99.99,meteohub,2013-04-02 16:59:00,
2013-04-02 13:04:00,35.1,-1.8,30.15,WNW,292,13.0,-999.0,20,-99.99,,,-99.99,meteohub,2013-04-02 17:04:00,
2013-04-02 13:10:00,35.2,-1.7,30.12,WNW,292,11.0,-999.0,20,-99.99,,,-99.99,meteohub,2013-04-02 17:10:00,
2013-04-02 13:16:00,35.2,-1.7,30.12,WNW,292,15.0,-999.0,20,-99.99,,,-99.99,meteohub,2013-04-02 17:16:00,
2013-04-02 13:22:00,35.4,-1.5,30.12,NNW,338,11.0,-999.0,20,-99.99,,,-99.99,meteohub,2013-04-02 17:22:00,
2013-04-02 13:27:00,35.6,0.7,30.15,NW,315,13.0,-999.0,22,-99.99,,,-99.99,meteohub,2013-04-02 17:27:00,
2013-04-02 13:32:00,35.6,-2.6,30.15,NW,315,10.0,-999.0,19,-99.99,,,-99.99,meteohub,2013-04-02 17:32:00,
2013-04-02 13:37:00,35.8,-2.4,30.15,WNW,292,11.0,-999.0,19,-99.99,,,-99.99,meteohub,2013-04-02 17:37:00,
2013-04-02 13:42:00,36.1,-2.0,30.15,NNW,338,12.0,-999.0,19,-99.99,,,-99.99,meteohub,2013-04-02 17:42:00,
2013-04-02 13:47:00,36.1,1.0,30.15,NW,315,18.0,-999.0,22,-99.99,,,-99.99,meteohub,2013-04-02 17:47:00,
2013-04-02 13:52:00,36.3,-1.8,30.15,NW,315,20.0,-999.0,19,-99.99,,,-99.99,meteohub,2013-04-02 17:52:00,
2013-04-02 13:58:00,36.5,-1.7,30.15,NNW,338,12.0,-999.0,19,-99.99,,,-99.99,meteohub,2013-04-02 17:58:00,
2013-04-02 14:03:00,36.7,-1.7,30.15,NW,315,13.0,-999.0,19,-99.99,,,-99.99,meteohub,2013-04-02 18:03:00,
2013-04-02 14:08:00,36.7,-1.7,30.15,NNW,338,11.0,-999.0,19,-99.99,,,-99.99,meteohub,2013-04-02 18:08:00,
2013-04-02 14:13:00,36.9,-1.5,30.15,WNW,292,13.0,-999.0,19,-99.99,,,-99.99,meteohub,2013-04-02 18:13:00,
2013-04-02 14:18:00,36.7,-1.7,30.15,NNW,338,10.0,-999.0,19,-99.99,,,-99.99,meteohub,2013-04-02 18:18:00,
2013-04-02 14:24:00,36.9,-1.5,30.15,NW,315,11.0,-999.0,19,-99.99,,,-99.99,meteohub,2013-04-02 18:24:00,
2013-04-02 14:29:00,36.9,-1.5,30.15,NNW,338,13.0,-999.0,19,-99.99,,,-99.99,meteohub,2013-04-02 18:29:00,
2013-04-02 14:34:00,37.0,-1.3,30.15,North,0,20.0,-999.0,19,-99.99,,,-99.99,meteohub,2013-04-02 18:34:00,
2013-04-02 14:40:00,37.2,-1.1,30.12,NW,315,13.0,-999.0,19,-99.99,,,-99.99,meteohub,2013-04-02 18:40:00,
2013-04-02 14:45:00,37.2,-1.1,30.12,WNW,292,19.0,-999.0,19,-99.99,,,-99.99,meteohub,2013-04-02 18:45:00,
2013-04-02 14:50:00,36.9,-1.5,30.12,NW,315,13.0,-999.0,19,-99.99,,,-99.99,meteohub,2013-04-02 18:50:00,
2013-04-02 14:55:00,37.0,-1.3,30.15,WNW,292,15.0,-999.0,19,-99.99,,,-99.99,meteohub,2013-04-02 18:55:00,
2013-04-02 15:02:00,37.0,-1.3,30.15,NNW,338,14.0,-999.0,19,-99.99,,,-99.99,meteohub,2013-04-02 19:02:00,
2013-04-02 15:07:00,37.4,-0.9,30.15,NNW,338,13.0,-999.0,19,-99.99,,,-99.99,meteohub,2013-04-02 19:07:00,
2013-04-02 15:12:00,37.0,-1.3,30.12,NNW,338,12.0,-999.0,19,-99.99,,,-99.99,meteohub,2013-04-02 19:12:00,
2013-04-02 15:17:00,37.2,-1.1,30.12,NNW,338,20.0,-999.0,19,-99.99,,,-99.99,meteohub,2013-04-02 19:17:00,
2013-04-02 15:22:00,37.6,-0.8,30.12,NNW,338,9.0,-999.0,19,-99.99,,,-99.99,meteohub,2013-04-02 19:22:00,
2013-04-02 15:27:00,37.2,-1.1,30.12,NNW,338,13.0,-999.0,19,-99.99,,,-99.99,meteohub,2013-04-02 19:27:00,
2013-04-02 15:32:00,37.6,-0.8,30.12,North,0,9.0,-999.0,19,-99.99,,,-99.99,meteohub,2013-04-02 19:32:00,
2013-04-02 15:37:00,37.4,-0.9,30.12,NW,315,13.0,-999.0,19,-99.99,,,-99.99,meteohub,2013-04-02 19:37:00,
2013-04-02 15:43:00,37.6,-0.8,30.12,NNW,338,10.0,-999.0,19,-99.99,,,-99.99,meteohub,2013-04-02 19:43:00,
2013-04-02 15:48:00,37.2,-1.1,30.12,NNW,338,7.0,-999.0,19,-99.99,,,-99.99,meteohub,2013-04-02 19:48:00,
2013-04-02 15:53:00,37.4,-0.9,30.12,NW,315,13.0,-999.0,19,-99.99,,,-99.99,meteohub,2013-04-02 19:53:00,
2013-04-02 15:59:00,37.6,-0.8,30.12,WNW,292,10.0,-999.0,19,-99.99,,,-99.99,meteohub,2013-04-02 19:59:00,
2013-04-02 16:04:00,37.8,-0.8,30.12,NNE,22,8.0,-999.0,19,-99.99,,,-99.99,meteohub,2013-04-02 20:04:00,
2013-04-02 16:09:00,37.9,-0.6,30.12,NW,315,10.0,-999.0,19,-99.99,,,-99.99,meteohub,2013-04-02 20:09:00,
2013-04-02 16:17:00,38.1,-0.4,30.12,NNE,22,16.0,-999.0,19,-99.99,,,-99.99,meteohub,2013-04-02 20:17:00,
2013-04-02 16:22:00,38.1,-0.4,30.12,WNW,292,15.0,-999.0,19,-99.99,,,-99.99,meteohub,2013-04-02 20:22:00,
2013-04-02 16:28:00,38.1,-0.4,30.09,NW,315,13.0,-999.0,19,-99.99,,,-99.99,meteohub,2013-04-02 20:28:00,
2013-04-02 16:34:00,38.1,-0.4,30.09,NNW,338,11.0,-999.0,19,-99.99,,,-99.99,meteohub,2013-04-02 20:34:00,
2013-04-02 16:42:00,37.9,-0.6,30.12,NNW,338,11.0,-999.0,19,-99.99,,,-99.99,meteohub,2013-04-02 20:42:00,
2013-04-02 16:47:00,38.5,0.0,30.12,NW,315,15.0,-999.0,19,-99.99,,,-99.99,meteohub,2013-04-02 20:47:00,
2013-04-02 16:52:00,38.7,0.1,30.12,WNW,292,17.0,-999.0,19,-99.99,,,-99.99,meteohub,2013-04-02 20:52:00,
2013-04-02 16:57:00,38.5,0.0,30.12,NNW,338,9.0,-999.0,19,-99.99,,,-99.99,meteohub,2013-04-02 20:57:00,
2013-04-02 17:02:00,38.5,0.0,30.12,NNW,338,10.0,-999.0,19,-99.99,,,-99.99,meteohub,2013-04-02 21:02:00,
2013-04-02 17:08:00,38.1,-0.4,30.12,NNW,338,11.0,-999.0,19,-99.99,,,-99.99,meteohub,2013-04-02 21:08:00,
2013-04-02 17:13:00,38.1,-0.4,30.12,NW,315,11.0,-999.0,19,-99.99,,,-99.99,meteohub,2013-04-02 21:13:00,
2013-04-02 17:18:00,38.1,-0.4,30.12,North,0,5.0,-999.0,19,-99.99,,,-99.99,meteohub,2013-04-02 21:18:00,
2013-04-02 17:23:00,38.1,-0.4,30.12,NNW,338,12.0,-999.0,19,-99.99,,,-99.99,meteohub,2013-04-02 21:23:00,
2013-04-02 17:32:00,38.1,-0.4,30.12,NNW,338,8.0,-999.0,19,-99.99,,,-99.99,meteohub,2013-04-02 21:32:00,
2013-04-02 17:37:00,38.1,-0.4,30.12,NNW,338,13.0,-999.0,19,-99.99,,,-99.99,meteohub,2013-04-02 21:37:00,
2013-04-02 17:42:00,38.1,-0.4,30.15,NNW,338,17.0,-999.0,19,-99.99,,,-99.99,meteohub,2013-04-02 21:42:00,
2013-04-02 17:47:00,38.3,-0.2,30.15,NNW,338,11.0,-999.0,19,-99.99,,,-99.99,meteohub,2013-04-02 21:47:00,
2013-04-02 17:53:00,38.1,-0.4,30.15,NW,315,11.0,-999.0,19,-99.99,,,-99.99,meteohub,2013-04-02 21:53:00,
2013-04-02 17:58:00,37.9,-0.6,30.15,NW,315,10.0,-999.0,19,-99.99,,,-99.99,meteohub,2013-04-02 21:58:00,
2013-04-02 18:03:00,37.9,-0.6,30.15,NW,315,13.0,-999.0,19,-99.99,,,-99.99,meteohub,2013-04-02 22:03:00,
2013-04-02 18:08:00,37.9,-0.6,30.15,NNW,338,10.0,-999.0,19,-99.99,,,-99.99,meteohub,2013-04-02 22:08:00,
2013-04-02 18:13:00,37.9,-0.6,30.15,NNW,338,15.0,-999.0,19,-99.99,,,-99.99,meteohub,2013-04-02 22:13:00,
2013-04-02 18:18:00,37.9,-0.6,30.15,NW,315,13.0,-999.0,19,-99.99,,,-99.99,meteohub,2013-04-02 22:18:00,
2013-04-02 18:23:00,37.9,-0.6,30.15,NNW,338,9.0,-999.0,19,-99.99,,,-99.99,meteohub,2013-04-02 22:23:00,
2013-04-02 18:28:00,37.9,-0.6,30.15,NNW,338,11.0,-999.0,19,-99.99,,,-99.99,meteohub,2013-04-02 22:28:00,
2013-04-02 18:34:00,37.9,-0.6,30.15,NW,315,9.0,-999.0,19,-99.99,,,-99.99,meteohub,2013-04-02 22:34:00,
2013-04-02 18:39:00,37.8,-0.8,30.15,WNW,292,11.0,-999.0,19,-99.99,,,-99.99,meteohub,2013-04-02 22:39:00,
2013-04-02 18:47:00,37.6,-0.8,30.15,NNW,338,13.0,-999.0,19,-99.99,,,-99.99,meteohub,2013-04-02 22:47:00,
2013-04-02 18:52:00,37.6,-0.8,30.15,NNW,338,11.0,-999.0,19,-99.99,,,-99.99,meteohub,2013-04-02 22:52:00,
2013-04-02 18:57:00,37.6,-0.8,30.15,NNW,338,13.0,-999.0,19,-99.99,,,-99.99,meteohub,2013-04-02 22:57:00,
2013-04-02 19:02:00,37.4,-0.9,30.15,NW,315,13.0,-999.0,19,-99.99,,,-99.99,meteohub,2013-04-02 23:02:00,
2013-04-02 19:07:00,37.8,-0.8,30.15,NNW,338,11.0,-999.0,19,-99.99,,,-99.99,meteohub,2013-04-02 23:07:00,
2013-04-02 19:12:00,37.8,-0.8,30.15,NW,315,11.0,-999.0,19,-99.99,,,-99.99,meteohub,2013-04-02 23:12:00,
2013-04-02 19:17:00,37.8,-0.8,30.15,NW,315,13.0,-999.0,19,-99.99,,,-99.99,meteohub,2013-04-02 23:17:00,
2013-04-02 19:22:00,37.8,-0.8,30.15,NW,315,11.0,-999.0,19,-99.99,,,-99.99,meteohub,2013-04-02 23:22:00,
2013-04-02 19:29:00,37.6,-0.8,30.15,WNW,292,13.0,-999.0,19,-99.99,,,-99.99,meteohub,2013-04-02 23:29:00,
2013-04-02 19:34:00,37.4,-0.9,30.15,NNW,338,9.0,-999.0,19,-99.99,,,-99.99,meteohub,2013-04-02 23:34:00,
2013-04-02 19:40:00,37.2,-1.1,30.15,NNW,338,9.0,-999.0,19,-99.99,,,-99.99,meteohub,2013-04-02 23:40:00,
2013-04-02 19:45:00,37.0,-1.3,30.15,NW,315,13.0,-999.0,19,-99.99,,,-99.99,meteohub,2013-04-02 23:45:00,
2013-04-02 19:50:00,36.9,-1.5,30.15,NNW,338,10.0,-999.0,19,-99.99,,,-99.99,meteohub,2013-04-02 23:50:00,
2013-04-02 20:14:00,36.3,-1.8,30.18,NNW,338,6.0,-999.0,19,-99.99,,,-99.99,meteohub,2013-04-03 00:14:00,
2013-04-02 20:19:00,36.3,-1.8,30.18,NNW,338,5.0,-999.0,19,-99.99,,,-99.99,meteohub,2013-04-03 00:19:00,
2013-04-02 20:25:00,36.1,-2.0,30.18,North,0,6.0,-999.0,19,-99.99,,,-99.99,meteohub,2013-04-03 00:25:00,
2013-04-02 20:32:00,36.1,-2.0,30.18,NNW,338,8.0,-999.0,19,-99.99,,,-99.99,meteohub,2013-04-03 00:32:00,
2013-04-02 20:37:00,35.8,-2.4,30.18,NNW,338,6.0,-999.0,19,-99.99,,,-99.99,meteohub,2013-04-03 00:37:00,
2013-04-02 20:42:00,35.8,-2.4,30.21,NNW,338,8.0,-999.0,19,-99.99,,,-99.99,meteohub,2013-04-03 00:42:00,
2013-04-02 21:03:00,35.6,-2.6,30.21,NNE,22,7.0,-999.0,19,-99.99,,,-99.99,meteohub,2013-04-03 01:03:00,
2013-04-02 21:09:00,35.1,-1.8,30.21,NNW,338,8.0,-999.0,20,-99.99,,,-99.99,meteohub,2013-04-03 01:09:00,
2013-04-02 21:14:00,35.1,-1.8,30.21,NW,315,9.0,-999.0,20,-99.99,,,-99.99,meteohub,2013-04-03 01:14:00,
2013-04-02 21:19:00,34.9,-2.0,30.21,NNW,338,8.0,-999.0,20,-99.99,,,-99.99,meteohub,2013-04-03 01:19:00,
2013-04-02 21:24:00,34.9,-2.0,30.18,NNW,338,9.0,-999.0,20,-99.99,,,-99.99,meteohub,2013-04-03 01:24:00,
2013-04-02 21:30:00,34.7,-2.2,30.18,North,0,9.0,-999.0,20,-99.99,,,-99.99,meteohub,2013-04-03 01:30:00,
2013-04-02 21:35:00,34.5,-2.4,30.18,NW,315,11.0,-999.0,20,-99.99,,,-99.99,meteohub,2013-04-03 01:35:00,
2013-04-02 21:40:00,34.5,-2.4,30.21,NNW,338,6.0,-999.0,20,-99.99,,,-99.99,meteohub,2013-04-03 01:40:00,
2013-04-02 21:47:00,34.3,-2.4,30.21,NNW,338,11.0,-999.0,20,-99.99,,,-99.99,meteohub,2013-04-03 01:47:00,
2013-04-02 21:52:00,34.3,-2.4,30.21,NNW,338,7.0,-999.0,20,-99.99,,,-99.99,meteohub,2013-04-03 01:52:00,
2013-04-02 21:57:00,34.2,-2.6,30.21,NNW,338,6.0,-999.0,20,-99.99,,,-99.99,meteohub,2013-04-03 01:57:00,
2013-04-02 22:02:00,34.0,-2.7,30.21,North,0,6.0,-999.0,20,-99.99,,,-99.99,meteohub,2013-04-03 02:02:00,
2013-04-02 22:07:00,34.0,-2.7,30.21,NNW,338,7.0,-999.0,20,-99.99,,,-99.99,meteohub,2013-04-03 02:07:00,
2013-04-02 22:12:00,33.8,-2.9,30.24,NE,45,7.0,-999.0,20,-99.99,,,-99.99,meteohub,2013-04-03 02:12:00,
2013-04-02 22:18:00,33.8,-2.9,30.24,NNW,338,6.0,-999.0,20,-99.99,,,-99.99,meteohub,2013-04-03 02:18:00,
2013-04-02 22:23:00,33.6,-3.1,30.24,NNW,338,9.0,-999.0,20,-99.99,,,-99.99,meteohub,2013-04-03 02:23:00,
2013-04-02 22:28:00,33.4,-3.3,30.24,NNW,338,8.0,-999.0,20,-99.99,,,-99.99,meteohub,2013-04-03 02:28:00,
2013-04-02 22:34:00,33.3,-3.3,30.24,NNW,338,6.0,-999.0,20,-99.99,,,-99.99,meteohub,2013-04-03 02:34:00,
2013-04-02 22:39:00,33.3,-3.3,30.24,NNW,338,6.0,-999.0,20,-99.99,,,-99.99,meteohub,2013-04-03 02:39:00,
2013-04-02 22:44:00,33.1,-3.5,30.24,NNW,338,9.0,-999.0,20,-99.99,,,-99.99,meteohub,2013-04-03 02:44:00,
2013-04-02 22:49:00,33.1,-3.5,30.24,NNE,22,4.0,-999.0,20,-99.99,,,-99.99,meteohub,2013-04-03 02:49:00,
2013-04-02 22:55:00,32.9,-3.6,30.24,NNW,338,8.0,-999.0,20,-99.99,,,-99.99,meteohub,2013-04-03 02:55:00,
2013-04-02 23:00:00,32.7,-3.8,30.24,North,0,9.0,-999.0,20,-99.99,,,-99.99,meteohub,2013-04-03 03:00:00,
2013-04-02 23:05:00,32.7,-3.8,30.24,NNW,338,6.0,-999.0,20,-99.99,,,-99.99,meteohub,2013-04-03 03:05:00,
2013-04-02 23:11:00,32.5,-4.0,30.24,NNW,338,6.0,-999.0,20,-99.99,,,-99.99,meteohub,2013-04-03 03:11:00,
2013-04-02 23:31:00,32.0,-4.4,30.27,NNW,338,5.0,-999.0,20,-99.99,,,-99.99,meteohub,2013-04-03 03:31:00,
2013-04-02 23:37:00,32.0,-4.4,30.27,NW,315,4.0,-999.0,20,-99.99,,,-99.99,meteohub,2013-04-03 03:37:00,
2013-04-02 23:42:00,31.8,-4.7,30.27,NW,315,5.0,-999.0,20,-99.99,,,-99.99,meteohub,2013-04-03 03:42:00,
2013-04-02 23:47:00,31.6,-4.7,30.27,NNW,338,6.0,-999.0,20,-99.99,,,-99.99,meteohub,2013-04-03 03:47:00,
2013-04-02 23:53:00,31.5,-4.9,30.27,WNW,292,4.0,-999.0,20,-99.99,,,-99.99,meteohub,2013-04-03 03:53:00,